sensor_id;sensor_type;location;lat;lon;timestamp;P1;durP1;ratioP1;P2;durP2;ratioP2
31004;SDS011;17676;52.254;4.490;2024-02-23T00:01:05;15.63;;;1.67;;
31004;SDS011;17676;52.254;4.490;2024-02-23T00:03:32;14.48;;;1.17;;
31004;SDS011;17676;52.254;4.490;2024-02-23T00:06:01;14.15;;;0.90;;
31004;SDS011;17676;52.254;4.490;2024-02-23T00:08:28;10.95;;;0.95;;
31004;SDS011;17676;52.254;4.490;2024-02-23T00:10:54;14.85;;;1.25;;
31004;SDS011;17676;52.254;4.490;2024-02-23T00:13:21;13.32;;;1.05;;
31004;SDS011;17676;52.254;4.490;2024-02-23T00:15:48;18.58;;;1.85;;
31004;SDS011;17676;52.254;4.490;2024-02-23T00:18:14;12.52;;;0.90;;
31004;SDS011;17676;52.254;4.490;2024-02-23T00:20:43;18.20;;;1.15;;
31004;SDS011;17676;52.254;4.490;2024-02-23T00:23:10;10.65;;;1.23;;
31004;SDS011;17676;52.254;4.490;2024-02-23T00:25:37;15.40;;;1.33;;
31004;SDS011;17676;52.254;4.490;2024-02-23T00:28:04;13.55;;;1.15;;
31004;SDS011;17676;52.254;4.490;2024-02-23T00:30:31;12.30;;;0.60;;
31004;SDS011;17676;52.254;4.490;2024-02-23T00:32:57;16.27;;;0.98;;
31004;SDS011;17676;52.254;4.490;2024-02-23T00:35:24;11.18;;;1.08;;
31004;SDS011;17676;52.254;4.490;2024-02-23T00:37:50;19.08;;;1.08;;
31004;SDS011;17676;52.254;4.490;2024-02-23T00:40:17;12.90;;;0.90;;
31004;SDS011;17676;52.254;4.490;2024-02-23T00:42:44;16.13;;;1.10;;
31004;SDS011;17676;52.254;4.490;2024-02-23T00:45:11;11.05;;;0.95;;
31004;SDS011;17676;52.254;4.490;2024-02-23T00:47:37;14.00;;;1.10;;
31004;SDS011;17676;52.254;4.490;2024-02-23T00:50:04;12.27;;;1.23;;
31004;SDS011;17676;52.254;4.490;2024-02-23T00:52:31;7.80;;;0.60;;
31004;SDS011;17676;52.254;4.490;2024-02-23T00:54:58;9.77;;;0.95;;
31004;SDS011;17676;52.254;4.490;2024-02-23T00:57:25;8.95;;;0.73;;
31004;SDS011;17676;52.254;4.490;2024-02-23T00:59:56;7.57;;;1.10;;
31004;SDS011;17676;52.254;4.490;2024-02-23T01:02:23;8.68;;;0.73;;
31004;SDS011;17676;52.254;4.490;2024-02-23T01:04:50;11.48;;;0.65;;
31004;SDS011;17676;52.254;4.490;2024-02-23T01:07:23;14.30;;;1.30;;
31004;SDS011;17676;52.254;4.490;2024-02-23T01:09:49;7.90;;;0.88;;
31004;SDS011;17676;52.254;4.490;2024-02-23T01:12:16;12.27;;;0.73;;
31004;SDS011;17676;52.254;4.490;2024-02-23T01:14:43;11.85;;;1.05;;
31004;SDS011;17676;52.254;4.490;2024-02-23T01:17:10;14.35;;;0.82;;
31004;SDS011;17676;52.254;4.490;2024-02-23T01:19:36;13.73;;;0.80;;
31004;SDS011;17676;52.254;4.490;2024-02-23T01:22:03;6.75;;;1.00;;
31004;SDS011;17676;52.254;4.490;2024-02-23T01:24:30;7.80;;;0.65;;
31004;SDS011;17676;52.254;4.490;2024-02-23T01:26:57;8.73;;;0.73;;
31004;SDS011;17676;52.254;4.490;2024-02-23T01:29:25;10.93;;;0.73;;
31004;SDS011;17676;52.254;4.490;2024-02-23T01:31:52;7.37;;;0.60;;
31004;SDS011;17676;52.254;4.490;2024-02-23T01:34:20;20.48;;;0.90;;
31004;SDS011;17676;52.254;4.490;2024-02-23T01:36:48;12.27;;;0.85;;
31004;SDS011;17676;52.254;4.490;2024-02-23T01:39:15;13.43;;;1.20;;
31004;SDS011;17676;52.254;4.490;2024-02-23T01:41:41;11.57;;;0.47;;
31004;SDS011;17676;52.254;4.490;2024-02-23T01:44:10;6.13;;;0.38;;
31004;SDS011;17676;52.254;4.490;2024-02-23T01:46:37;9.55;;;1.02;;
31004;SDS011;17676;52.254;4.490;2024-02-23T01:49:05;7.60;;;0.52;;
31004;SDS011;17676;52.254;4.490;2024-02-23T01:51:33;14.43;;;0.68;;
31004;SDS011;17676;52.254;4.490;2024-02-23T01:54:01;13.68;;;0.85;;
31004;SDS011;17676;52.254;4.490;2024-02-23T01:56:28;10.93;;;1.05;;
31004;SDS011;17676;52.254;4.490;2024-02-23T01:58:56;8.23;;;0.82;;
31004;SDS011;17676;52.254;4.490;2024-02-23T02:01:22;11.15;;;0.70;;
31004;SDS011;17676;52.254;4.490;2024-02-23T02:03:49;10.63;;;0.88;;
31004;SDS011;17676;52.254;4.490;2024-02-23T02:06:16;12.82;;;0.65;;
31004;SDS011;17676;52.254;4.490;2024-02-23T02:08:42;10.40;;;0.50;;
31004;SDS011;17676;52.254;4.490;2024-02-23T02:11:09;8.82;;;0.32;;
31004;SDS011;17676;52.254;4.490;2024-02-23T02:13:36;10.18;;;0.70;;
31004;SDS011;17676;52.254;4.490;2024-02-23T02:16:03;17.23;;;1.17;;
31004;SDS011;17676;52.254;4.490;2024-02-23T02:18:29;13.73;;;0.70;;
31004;SDS011;17676;52.254;4.490;2024-02-23T02:20:56;8.32;;;0.80;;
31004;SDS011;17676;52.254;4.490;2024-02-23T02:23:24;13.98;;;1.00;;
31004;SDS011;17676;52.254;4.490;2024-02-23T02:25:54;10.00;;;0.43;;
31004;SDS011;17676;52.254;4.490;2024-02-23T02:28:24;7.82;;;0.80;;
31004;SDS011;17676;52.254;4.490;2024-02-23T02:30:51;11.95;;;0.75;;
31004;SDS011;17676;52.254;4.490;2024-02-23T02:33:19;10.40;;;1.02;;
31004;SDS011;17676;52.254;4.490;2024-02-23T02:35:47;13.43;;;0.55;;
31004;SDS011;17676;52.254;4.490;2024-02-23T02:38:13;9.07;;;0.52;;
31004;SDS011;17676;52.254;4.490;2024-02-23T02:40:40;8.40;;;0.93;;
31004;SDS011;17676;52.254;4.490;2024-02-23T02:43:07;7.80;;;0.63;;
31004;SDS011;17676;52.254;4.490;2024-02-23T02:45:34;13.73;;;1.42;;
31004;SDS011;17676;52.254;4.490;2024-02-23T02:48:00;9.98;;;1.40;;
31004;SDS011;17676;52.254;4.490;2024-02-23T02:50:28;14.43;;;1.20;;
31004;SDS011;17676;52.254;4.490;2024-02-23T02:52:55;6.35;;;0.30;;
31004;SDS011;17676;52.254;4.490;2024-02-23T02:55:22;5.53;;;0.50;;
31004;SDS011;17676;52.254;4.490;2024-02-23T02:57:48;8.80;;;0.50;;
31004;SDS011;17676;52.254;4.490;2024-02-23T03:00:15;5.57;;;0.30;;
31004;SDS011;17676;52.254;4.490;2024-02-23T03:02:42;4.20;;;0.50;;
31004;SDS011;17676;52.254;4.490;2024-02-23T03:05:08;12.32;;;0.73;;
31004;SDS011;17676;52.254;4.490;2024-02-23T03:07:35;13.45;;;0.88;;
31004;SDS011;17676;52.254;4.490;2024-02-23T03:10:02;11.45;;;0.73;;
31004;SDS011;17676;52.254;4.490;2024-02-23T03:12:28;9.52;;;0.57;;
31004;SDS011;17676;52.254;4.490;2024-02-23T03:14:55;8.25;;;0.57;;
31004;SDS011;17676;52.254;4.490;2024-02-23T03:17:22;8.43;;;0.70;;
31004;SDS011;17676;52.254;4.490;2024-02-23T03:19:49;8.32;;;0.77;;
31004;SDS011;17676;52.254;4.490;2024-02-23T03:22:19;11.57;;;0.65;;
31004;SDS011;17676;52.254;4.490;2024-02-23T03:24:46;7.05;;;0.50;;
31004;SDS011;17676;52.254;4.490;2024-02-23T03:27:13;10.95;;;0.93;;
31004;SDS011;17676;52.254;4.490;2024-02-23T03:29:40;10.98;;;0.52;;
31004;SDS011;17676;52.254;4.490;2024-02-23T03:32:07;6.47;;;0.55;;
31004;SDS011;17676;52.254;4.490;2024-02-23T03:34:34;9.68;;;0.70;;
31004;SDS011;17676;52.254;4.490;2024-02-23T03:37:01;12.82;;;0.50;;
31004;SDS011;17676;52.254;4.490;2024-02-23T03:39:29;9.00;;;0.47;;
31004;SDS011;17676;52.254;4.490;2024-02-23T03:41:55;12.23;;;0.70;;
31004;SDS011;17676;52.254;4.490;2024-02-23T03:44:22;5.65;;;0.47;;
31004;SDS011;17676;52.254;4.490;2024-02-23T03:46:49;6.90;;;0.50;;
31004;SDS011;17676;52.254;4.490;2024-02-23T03:49:16;8.38;;;0.57;;
31004;SDS011;17676;52.254;4.490;2024-02-23T03:51:43;5.00;;;0.32;;
31004;SDS011;17676;52.254;4.490;2024-02-23T03:54:09;15.10;;;1.10;;
31004;SDS011;17676;52.254;4.490;2024-02-23T03:56:40;11.27;;;0.73;;
31004;SDS011;17676;52.254;4.490;2024-02-23T03:59:08;7.75;;;0.40;;
31004;SDS011;17676;52.254;4.490;2024-02-23T04:01:38;8.13;;;0.95;;
31004;SDS011;17676;52.254;4.490;2024-02-23T04:04:06;8.52;;;0.30;;
31004;SDS011;17676;52.254;4.490;2024-02-23T04:06:33;10.48;;;0.68;;
31004;SDS011;17676;52.254;4.490;2024-02-23T04:09:01;11.88;;;0.60;;
31004;SDS011;17676;52.254;4.490;2024-02-23T04:11:27;12.43;;;0.65;;
31004;SDS011;17676;52.254;4.490;2024-02-23T04:13:54;16.77;;;1.13;;
31004;SDS011;17676;52.254;4.490;2024-02-23T04:16:24;13.90;;;0.80;;
31004;SDS011;17676;52.254;4.490;2024-02-23T04:18:51;9.73;;;0.65;;
31004;SDS011;17676;52.254;4.490;2024-02-23T04:21:19;4.72;;;0.40;;
31004;SDS011;17676;52.254;4.490;2024-02-23T04:23:46;12.50;;;0.80;;
31004;SDS011;17676;52.254;4.490;2024-02-23T04:26:13;12.93;;;0.90;;
31004;SDS011;17676;52.254;4.490;2024-02-23T04:28:40;4.03;;;0.40;;
31004;SDS011;17676;52.254;4.490;2024-02-23T04:31:08;6.30;;;0.77;;
31004;SDS011;17676;52.254;4.490;2024-02-23T04:33:35;9.70;;;0.77;;
31004;SDS011;17676;52.254;4.490;2024-02-23T04:36:03;5.33;;;0.40;;
31004;SDS011;17676;52.254;4.490;2024-02-23T04:38:30;9.03;;;0.40;;
31004;SDS011;17676;52.254;4.490;2024-02-23T04:40:57;5.80;;;0.40;;
31004;SDS011;17676;52.254;4.490;2024-02-23T04:43:24;8.47;;;0.50;;
31004;SDS011;17676;52.254;4.490;2024-02-23T04:45:51;7.37;;;0.40;;
31004;SDS011;17676;52.254;4.490;2024-02-23T04:48:18;10.23;;;1.73;;
31004;SDS011;17676;52.254;4.490;2024-02-23T04:50:45;11.23;;;1.20;;
31004;SDS011;17676;52.254;4.490;2024-02-23T04:53:11;10.47;;;0.73;;
31004;SDS011;17676;52.254;4.490;2024-02-23T04:55:38;10.00;;;0.73;;
31004;SDS011;17676;52.254;4.490;2024-02-23T04:58:06;3.37;;;0.70;;
31004;SDS011;17676;52.254;4.490;2024-02-23T05:00:32;3.80;;;0.33;;
31004;SDS011;17676;52.254;4.490;2024-02-23T05:03:00;8.00;;;0.40;;
31004;SDS011;17676;52.254;4.490;2024-02-23T05:05:30;4.63;;;0.20;;
31004;SDS011;17676;52.254;4.490;2024-02-23T05:07:58;1.77;;;0.20;;
31004;SDS011;17676;52.254;4.490;2024-02-23T05:10:25;2.93;;;0.20;;
31004;SDS011;17676;52.254;4.490;2024-02-23T05:12:52;7.07;;;0.20;;
31004;SDS011;17676;52.254;4.490;2024-02-23T05:15:19;5.87;;;0.20;;
31004;SDS011;17676;52.254;4.490;2024-02-23T05:17:45;3.10;;;0.20;;
31004;SDS011;17676;52.254;4.490;2024-02-23T05:20:13;4.53;;;0.20;;
31004;SDS011;17676;52.254;4.490;2024-02-23T05:22:40;1.63;;;0.07;;
31004;SDS011;17676;52.254;4.490;2024-02-23T05:25:07;5.57;;;0.10;;
31004;SDS011;17676;52.254;4.490;2024-02-23T05:27:34;2.20;;;0.10;;
31004;SDS011;17676;52.254;4.490;2024-02-23T05:30:01;5.50;;;0.10;;
31004;SDS011;17676;52.254;4.490;2024-02-23T05:32:28;2.23;;;0.00;;
31004;SDS011;17676;52.254;4.490;2024-02-23T05:34:55;2.73;;;0.20;;
31004;SDS011;17676;52.254;4.490;2024-02-23T05:37:23;5.10;;;0.10;;
31004;SDS011;17676;52.254;4.490;2024-02-23T05:39:50;3.37;;;0.40;;
31004;SDS011;17676;52.254;4.490;2024-02-23T05:42:17;1.37;;;0.10;;
31004;SDS011;17676;52.254;4.490;2024-02-23T05:44:43;2.77;;;0.10;;
31004;SDS011;17676;52.254;4.490;2024-02-23T05:47:11;2.03;;;0.20;;
31004;SDS011;17676;52.254;4.490;2024-02-23T05:49:40;5.20;;;0.60;;
31004;SDS011;17676;52.254;4.490;2024-02-23T05:52:07;2.57;;;0.20;;
31004;SDS011;17676;52.254;4.490;2024-02-23T05:54:34;4.43;;;0.30;;
31004;SDS011;17676;52.254;4.490;2024-02-23T05:57:00;2.73;;;0.23;;
31004;SDS011;17676;52.254;4.490;2024-02-23T05:59:27;6.10;;;0.20;;
31004;SDS011;17676;52.254;4.490;2024-02-23T06:01:54;4.23;;;0.50;;
31004;SDS011;17676;52.254;4.490;2024-02-23T06:04:23;2.20;;;0.50;;
31004;SDS011;17676;52.254;4.490;2024-02-23T06:06:50;4.20;;;0.30;;
31004;SDS011;17676;52.254;4.490;2024-02-23T06:09:17;1.87;;;0.30;;
31004;SDS011;17676;52.254;4.490;2024-02-23T06:11:45;7.57;;;0.43;;
31004;SDS011;17676;52.254;4.490;2024-02-23T06:14:13;2.90;;;0.60;;
31004;SDS011;17676;52.254;4.490;2024-02-23T06:16:40;1.47;;;0.40;;
31004;SDS011;17676;52.254;4.490;2024-02-23T06:19:07;3.87;;;0.80;;
31004;SDS011;17676;52.254;4.490;2024-02-23T06:21:34;8.00;;;0.60;;
31004;SDS011;17676;52.254;4.490;2024-02-23T06:24:00;5.13;;;0.43;;
31004;SDS011;17676;52.254;4.490;2024-02-23T06:26:27;4.67;;;0.47;;
31004;SDS011;17676;52.254;4.490;2024-02-23T06:28:54;4.63;;;0.60;;
31004;SDS011;17676;52.254;4.490;2024-02-23T06:31:21;6.77;;;0.80;;
31004;SDS011;17676;52.254;4.490;2024-02-23T06:33:47;4.73;;;0.67;;
31004;SDS011;17676;52.254;4.490;2024-02-23T06:36:16;5.32;;;0.60;;
31004;SDS011;17676;52.254;4.490;2024-02-23T06:38:43;4.50;;;0.90;;
31004;SDS011;17676;52.254;4.490;2024-02-23T06:41:10;5.50;;;0.63;;
31004;SDS011;17676;52.254;4.490;2024-02-23T06:43:37;3.03;;;0.90;;
31004;SDS011;17676;52.254;4.490;2024-02-23T06:46:07;7.00;;;0.93;;
31004;SDS011;17676;52.254;4.490;2024-02-23T06:48:35;4.03;;;0.75;;
31004;SDS011;17676;52.254;4.490;2024-02-23T06:51:04;6.43;;;1.10;;
31004;SDS011;17676;52.254;4.490;2024-02-23T06:53:31;2.67;;;0.90;;
31004;SDS011;17676;52.254;4.490;2024-02-23T06:55:58;5.63;;;1.10;;
31004;SDS011;17676;52.254;4.490;2024-02-23T06:58:25;4.57;;;0.80;;
31004;SDS011;17676;52.254;4.490;2024-02-23T07:00:52;3.70;;;0.50;;
31004;SDS011;17676;52.254;4.490;2024-02-23T07:03:18;4.37;;;0.70;;
31004;SDS011;17676;52.254;4.490;2024-02-23T07:05:45;6.80;;;1.13;;
31004;SDS011;17676;52.254;4.490;2024-02-23T07:08:13;7.37;;;1.10;;
31004;SDS011;17676;52.254;4.490;2024-02-23T07:10:40;3.17;;;1.33;;
31004;SDS011;17676;52.254;4.490;2024-02-23T07:13:07;5.10;;;0.80;;
31004;SDS011;17676;52.254;4.490;2024-02-23T07:15:34;2.90;;;0.57;;
31004;SDS011;17676;52.254;4.490;2024-02-23T07:18:02;5.13;;;0.60;;
31004;SDS011;17676;52.254;4.490;2024-02-23T07:20:29;3.80;;;0.63;;
31004;SDS011;17676;52.254;4.490;2024-02-23T07:22:56;5.90;;;0.80;;
31004;SDS011;17676;52.254;4.490;2024-02-23T07:25:22;5.60;;;0.83;;
31004;SDS011;17676;52.254;4.490;2024-02-23T07:27:49;8.37;;;0.80;;
31004;SDS011;17676;52.254;4.490;2024-02-23T07:30:16;5.47;;;1.10;;
31004;SDS011;17676;52.254;4.490;2024-02-23T07:32:43;6.83;;;1.20;;
31004;SDS011;17676;52.254;4.490;2024-02-23T07:35:15;5.47;;;1.57;;
31004;SDS011;17676;52.254;4.490;2024-02-23T07:37:41;5.63;;;1.47;;
31004;SDS011;17676;52.254;4.490;2024-02-23T07:40:08;5.70;;;1.70;;
31004;SDS011;17676;52.254;4.490;2024-02-23T07:42:35;5.77;;;2.07;;
31004;SDS011;17676;52.254;4.490;2024-02-23T07:45:05;6.77;;;1.93;;
31004;SDS011;17676;52.254;4.490;2024-02-23T07:47:32;9.20;;;1.93;;
31004;SDS011;17676;52.254;4.490;2024-02-23T07:49:59;3.43;;;1.87;;
31004;SDS011;17676;52.254;4.490;2024-02-23T07:52:27;6.50;;;2.10;;
31004;SDS011;17676;52.254;4.490;2024-02-23T07:54:54;4.70;;;1.73;;
31004;SDS011;17676;52.254;4.490;2024-02-23T07:57:20;5.17;;;1.60;;
31004;SDS011;17676;52.254;4.490;2024-02-23T07:59:47;4.57;;;1.80;;
31004;SDS011;17676;52.254;4.490;2024-02-23T08:02:14;3.23;;;1.60;;
31004;SDS011;17676;52.254;4.490;2024-02-23T08:04:41;5.60;;;1.73;;
31004;SDS011;17676;52.254;4.490;2024-02-23T08:07:08;3.70;;;1.33;;
31004;SDS011;17676;52.254;4.490;2024-02-23T08:09:35;2.63;;;1.83;;
31004;SDS011;17676;52.254;4.490;2024-02-23T08:12:02;9.43;;;2.00;;
31004;SDS011;17676;52.254;4.490;2024-02-23T08:14:29;3.60;;;1.80;;
31004;SDS011;17676;52.254;4.490;2024-02-23T08:16:56;7.10;;;2.53;;
31004;SDS011;17676;52.254;4.490;2024-02-23T08:19:22;2.43;;;2.13;;
31004;SDS011;17676;52.254;4.490;2024-02-23T08:21:49;6.33;;;2.47;;
31004;SDS011;17676;52.254;4.490;2024-02-23T08:24:16;6.70;;;3.40;;
31004;SDS011;17676;52.254;4.490;2024-02-23T08:26:43;6.13;;;2.67;;
31004;SDS011;17676;52.254;4.490;2024-02-23T08:29:10;9.03;;;3.20;;
31004;SDS011;17676;52.254;4.490;2024-02-23T08:31:37;6.87;;;3.33;;
31004;SDS011;17676;52.254;4.490;2024-02-23T08:34:07;6.73;;;3.50;;
31004;SDS011;17676;52.254;4.490;2024-02-23T08:36:34;7.73;;;3.30;;
31004;SDS011;17676;52.254;4.490;2024-02-23T08:39:01;10.17;;;3.03;;
31004;SDS011;17676;52.254;4.490;2024-02-23T08:41:29;7.30;;;3.10;;
31004;SDS011;17676;52.254;4.490;2024-02-23T08:43:56;9.07;;;3.57;;
31004;SDS011;17676;52.254;4.490;2024-02-23T08:46:23;8.50;;;3.00;;
31004;SDS011;17676;52.254;4.490;2024-02-23T08:48:50;7.70;;;2.70;;
31004;SDS011;17676;52.254;4.490;2024-02-23T08:51:17;8.83;;;3.10;;
31004;SDS011;17676;52.254;4.490;2024-02-23T08:53:43;8.07;;;2.83;;
31004;SDS011;17676;52.254;4.490;2024-02-23T08:56:10;5.27;;;2.63;;
31004;SDS011;17676;52.254;4.490;2024-02-23T08:58:38;9.03;;;2.40;;
31004;SDS011;17676;52.254;4.490;2024-02-23T09:01:05;9.40;;;2.17;;
31004;SDS011;17676;52.254;4.490;2024-02-23T09:03:32;2.93;;;2.07;;
31004;SDS011;17676;52.254;4.490;2024-02-23T09:05:58;6.23;;;1.90;;
31004;SDS011;17676;52.254;4.490;2024-02-23T09:08:25;3.80;;;2.03;;
31004;SDS011;17676;52.254;4.490;2024-02-23T09:10:52;8.87;;;2.17;;
31004;SDS011;17676;52.254;4.490;2024-02-23T09:13:19;8.70;;;2.07;;
31004;SDS011;17676;52.254;4.490;2024-02-23T09:15:46;6.53;;;2.07;;
31004;SDS011;17676;52.254;4.490;2024-02-23T09:18:12;7.03;;;2.37;;
31004;SDS011;17676;52.254;4.490;2024-02-23T09:20:39;10.17;;;1.80;;
31004;SDS011;17676;52.254;4.490;2024-02-23T09:23:06;6.43;;;1.67;;
31004;SDS011;17676;52.254;4.490;2024-02-23T09:25:33;8.00;;;1.33;;
31004;SDS011;17676;52.254;4.490;2024-02-23T09:27:59;9.93;;;1.73;;
31004;SDS011;17676;52.254;4.490;2024-02-23T09:30:26;5.60;;;0.87;;
31004;SDS011;17676;52.254;4.490;2024-02-23T09:32:53;4.83;;;0.70;;
31004;SDS011;17676;52.254;4.490;2024-02-23T09:35:21;6.03;;;0.80;;
31004;SDS011;17676;52.254;4.490;2024-02-23T09:37:48;5.93;;;0.70;;
31004;SDS011;17676;52.254;4.490;2024-02-23T09:40:14;5.53;;;0.60;;
31004;SDS011;17676;52.254;4.490;2024-02-23T09:42:42;5.68;;;0.50;;
31004;SDS011;17676;52.254;4.490;2024-02-23T09:45:14;7.05;;;0.50;;
31004;SDS011;17676;52.254;4.490;2024-02-23T09:47:42;5.35;;;0.43;;
31004;SDS011;17676;52.254;4.490;2024-02-23T09:50:10;7.20;;;0.67;;
31004;SDS011;17676;52.254;4.490;2024-02-23T09:52:38;4.63;;;0.40;;
31004;SDS011;17676;52.254;4.490;2024-02-23T09:55:05;6.35;;;0.63;;
31004;SDS011;17676;52.254;4.490;2024-02-23T09:57:32;3.60;;;0.50;;
31004;SDS011;17676;52.254;4.490;2024-02-23T10:00:01;7.65;;;0.40;;
31004;SDS011;17676;52.254;4.490;2024-02-23T10:02:32;4.43;;;0.30;;
31004;SDS011;17676;52.254;4.490;2024-02-23T10:04:59;6.15;;;0.30;;
31004;SDS011;17676;52.254;4.490;2024-02-23T10:07:28;2.83;;;0.30;;
31004;SDS011;17676;52.254;4.490;2024-02-23T10:09:54;2.95;;;0.40;;
31004;SDS011;17676;52.254;4.490;2024-02-23T10:12:21;6.57;;;0.38;;
31004;SDS011;17676;52.254;4.490;2024-02-23T10:14:48;5.75;;;0.40;;
31004;SDS011;17676;52.254;4.490;2024-02-23T10:17:15;3.72;;;0.20;;
31004;SDS011;17676;52.254;4.490;2024-02-23T10:19:42;3.17;;;0.32;;
31004;SDS011;17676;52.254;4.490;2024-02-23T10:22:10;5.70;;;0.30;;
31004;SDS011;17676;52.254;4.490;2024-02-23T10:24:38;4.32;;;0.40;;
31004;SDS011;17676;52.254;4.490;2024-02-23T10:27:04;5.05;;;0.40;;
31004;SDS011;17676;52.254;4.490;2024-02-23T10:29:31;3.00;;;0.30;;
31004;SDS011;17676;52.254;4.490;2024-02-23T10:31:58;3.80;;;0.40;;
31004;SDS011;17676;52.254;4.490;2024-02-23T10:34:25;5.97;;;0.40;;
31004;SDS011;17676;52.254;4.490;2024-02-23T10:36:53;1.35;;;0.30;;
31004;SDS011;17676;52.254;4.490;2024-02-23T10:39:21;3.50;;;0.20;;
31004;SDS011;17676;52.254;4.490;2024-02-23T10:41:52;4.25;;;0.40;;
31004;SDS011;17676;52.254;4.490;2024-02-23T10:44:25;4.55;;;0.30;;
31004;SDS011;17676;52.254;4.490;2024-02-23T10:46:54;3.15;;;0.30;;
31004;SDS011;17676;52.254;4.490;2024-02-23T10:49:23;6.40;;;0.50;;
31004;SDS011;17676;52.254;4.490;2024-02-23T10:51:53;2.67;;;0.50;;
31004;SDS011;17676;52.254;4.490;2024-02-23T10:54:20;5.88;;;0.43;;
31004;SDS011;17676;52.254;4.490;2024-02-23T10:56:49;2.30;;;0.20;;
31004;SDS011;17676;52.254;4.490;2024-02-23T10:59:17;6.05;;;0.40;;
31004;SDS011;17676;52.254;4.490;2024-02-23T11:01:48;3.17;;;0.55;;
31004;SDS011;17676;52.254;4.490;2024-02-23T11:04:17;2.92;;;0.43;;
31004;SDS011;17676;52.254;4.490;2024-02-23T11:06:50;2.90;;;0.30;;
31004;SDS011;17676;52.254;4.490;2024-02-23T11:09:21;8.13;;;0.40;;
31004;SDS011;17676;52.254;4.490;2024-02-23T11:11:55;6.57;;;0.30;;
31004;SDS011;17676;52.254;4.490;2024-02-23T11:14:31;2.38;;;0.22;;
31004;SDS011;17676;52.254;4.490;2024-02-23T11:16:59;1.58;;;0.20;;
31004;SDS011;17676;52.254;4.490;2024-02-23T11:19:37;2.83;;;0.40;;
31004;SDS011;17676;52.254;4.490;2024-02-23T11:22:09;2.67;;;0.20;;
31004;SDS011;17676;52.254;4.490;2024-02-23T11:24:48;6.07;;;0.30;;
31004;SDS011;17676;52.254;4.490;2024-02-23T11:27:20;3.63;;;0.30;;
31004;SDS011;17676;52.254;4.490;2024-02-23T11:29:47;2.65;;;0.30;;
31004;SDS011;17676;52.254;4.490;2024-02-23T11:32:15;2.92;;;0.20;;
31004;SDS011;17676;52.254;4.490;2024-02-23T11:34:56;3.70;;;0.30;;
31004;SDS011;17676;52.254;4.490;2024-02-23T11:37:23;3.35;;;0.20;;
31004;SDS011;17676;52.254;4.490;2024-02-23T11:39:54;2.10;;;0.75;;
31004;SDS011;17676;52.254;4.490;2024-02-23T11:42:22;3.70;;;0.50;;
31004;SDS011;17676;52.254;4.490;2024-02-23T11:44:50;2.80;;;0.30;;
31004;SDS011;17676;52.254;4.490;2024-02-23T11:47:16;1.80;;;0.20;;
31004;SDS011;17676;52.254;4.490;2024-02-23T11:49:43;2.83;;;0.25;;
31004;SDS011;17676;52.254;4.490;2024-02-23T11:52:10;3.72;;;0.30;;
31004;SDS011;17676;52.254;4.490;2024-02-23T11:54:37;5.88;;;0.38;;
31004;SDS011;17676;52.254;4.490;2024-02-23T11:57:04;6.15;;;0.25;;
31004;SDS011;17676;52.254;4.490;2024-02-23T11:59:32;0.90;;;0.20;;
31004;SDS011;17676;52.254;4.490;2024-02-23T12:01:59;2.10;;;0.30;;
31004;SDS011;17676;52.254;4.490;2024-02-23T12:04:29;4.05;;;0.30;;
31004;SDS011;17676;52.254;4.490;2024-02-23T12:06:56;1.35;;;0.20;;
31004;SDS011;17676;52.254;4.490;2024-02-23T12:09:23;6.55;;;0.50;;
31004;SDS011;17676;52.254;4.490;2024-02-23T12:11:49;7.75;;;1.33;;
31004;SDS011;17676;52.254;4.490;2024-02-23T12:14:16;6.15;;;0.60;;
31004;SDS011;17676;52.254;4.490;2024-02-23T12:16:44;5.55;;;0.45;;
31004;SDS011;17676;52.254;4.490;2024-02-23T12:19:11;4.00;;;0.57;;
31004;SDS011;17676;52.254;4.490;2024-02-23T12:21:38;6.13;;;0.57;;
31004;SDS011;17676;52.254;4.490;2024-02-23T12:24:05;3.75;;;0.63;;
31004;SDS011;17676;52.254;4.490;2024-02-23T12:26:35;7.68;;;0.52;;
31004;SDS011;17676;52.254;4.490;2024-02-23T12:29:02;6.53;;;0.60;;
31004;SDS011;17676;52.254;4.490;2024-02-23T12:31:31;4.30;;;0.40;;
31004;SDS011;17676;52.254;4.490;2024-02-23T12:33:58;4.55;;;0.32;;
31004;SDS011;17676;52.254;4.490;2024-02-23T12:36:25;5.13;;;0.77;;
31004;SDS011;17676;52.254;4.490;2024-02-23T12:38:51;6.68;;;0.50;;
31004;SDS011;17676;52.254;4.490;2024-02-23T12:41:18;3.97;;;0.55;;
31004;SDS011;17676;52.254;4.490;2024-02-23T12:43:45;4.07;;;0.73;;
31004;SDS011;17676;52.254;4.490;2024-02-23T12:46:14;7.22;;;0.30;;
31004;SDS011;17676;52.254;4.490;2024-02-23T12:48:41;7.30;;;0.60;;
31004;SDS011;17676;52.254;4.490;2024-02-23T12:51:09;4.30;;;0.35;;
31004;SDS011;17676;52.254;4.490;2024-02-23T12:53:37;8.07;;;0.50;;
31004;SDS011;17676;52.254;4.490;2024-02-23T12:56:06;5.93;;;0.50;;
31004;SDS011;17676;52.254;4.490;2024-02-23T12:58:35;10.93;;;0.60;;
31004;SDS011;17676;52.254;4.490;2024-02-23T13:01:02;10.18;;;0.40;;
31004;SDS011;17676;52.254;4.490;2024-02-23T13:03:30;6.30;;;0.40;;
31004;SDS011;17676;52.254;4.490;2024-02-23T13:05:56;3.30;;;0.30;;
31004;SDS011;17676;52.254;4.490;2024-02-23T13:08:24;6.65;;;0.20;;
31004;SDS011;17676;52.254;4.490;2024-02-23T13:10:52;3.78;;;0.30;;
31004;SDS011;17676;52.254;4.490;2024-02-23T13:13:21;10.75;;;0.70;;
31004;SDS011;17676;52.254;4.490;2024-02-23T13:15:48;9.20;;;0.47;;
31004;SDS011;17676;52.254;4.490;2024-02-23T13:18:16;7.00;;;0.40;;
31004;SDS011;17676;52.254;4.490;2024-02-23T13:20:43;7.68;;;0.40;;
31004;SDS011;17676;52.254;4.490;2024-02-23T13:23:10;8.85;;;0.60;;
31004;SDS011;17676;52.254;4.490;2024-02-23T13:25:38;7.20;;;0.40;;
31004;SDS011;17676;52.254;4.490;2024-02-23T13:28:08;5.50;;;0.82;;
31004;SDS011;17676;52.254;4.490;2024-02-23T13:30:35;8.52;;;0.68;;
31004;SDS011;17676;52.254;4.490;2024-02-23T13:33:03;4.47;;;0.40;;
31004;SDS011;17676;52.254;4.490;2024-02-23T13:35:30;7.30;;;0.63;;
31004;SDS011;17676;52.254;4.490;2024-02-23T13:37:57;5.47;;;0.30;;
31004;SDS011;17676;52.254;4.490;2024-02-23T13:40:24;6.43;;;0.40;;
31004;SDS011;17676;52.254;4.490;2024-02-23T13:42:51;3.53;;;0.40;;
31004;SDS011;17676;52.254;4.490;2024-02-23T13:45:19;5.30;;;0.20;;
31004;SDS011;17676;52.254;4.490;2024-02-23T13:47:59;6.40;;;0.30;;
31004;SDS011;17676;52.254;4.490;2024-02-23T13:50:28;4.43;;;0.20;;
31004;SDS011;17676;52.254;4.490;2024-02-23T13:52:55;5.97;;;0.28;;
31004;SDS011;17676;52.254;4.490;2024-02-23T13:55:22;6.47;;;0.30;;
31004;SDS011;17676;52.254;4.490;2024-02-23T13:57:49;8.68;;;0.50;;
31004;SDS011;17676;52.254;4.490;2024-02-23T14:00:17;7.88;;;0.30;;
31004;SDS011;17676;52.254;4.490;2024-02-23T14:02:45;2.72;;;0.30;;
31004;SDS011;17676;52.254;4.490;2024-02-23T14:05:14;5.80;;;0.20;;
31004;SDS011;17676;52.254;4.490;2024-02-23T14:07:42;3.30;;;0.10;;
31004;SDS011;17676;52.254;4.490;2024-02-23T14:10:08;4.30;;;0.20;;
31004;SDS011;17676;52.254;4.490;2024-02-23T14:12:35;8.05;;;0.30;;
31004;SDS011;17676;52.254;4.490;2024-02-23T14:15:02;6.07;;;0.50;;
31004;SDS011;17676;52.254;4.490;2024-02-23T14:17:29;5.22;;;0.52;;
31004;SDS011;17676;52.254;4.490;2024-02-23T14:19:55;8.38;;;0.50;;
31004;SDS011;17676;52.254;4.490;2024-02-23T14:22:22;4.47;;;0.20;;
31004;SDS011;17676;52.254;4.490;2024-02-23T14:24:49;6.70;;;0.40;;
31004;SDS011;17676;52.254;4.490;2024-02-23T14:27:16;4.03;;;0.25;;
31004;SDS011;17676;52.254;4.490;2024-02-23T14:29:42;3.90;;;0.40;;
31004;SDS011;17676;52.254;4.490;2024-02-23T14:32:10;8.20;;;0.63;;
31004;SDS011;17676;52.254;4.490;2024-02-23T14:34:42;11.15;;;0.82;;
31004;SDS011;17676;52.254;4.490;2024-02-23T14:37:09;2.40;;;0.40;;
31004;SDS011;17676;52.254;4.490;2024-02-23T14:39:35;3.28;;;0.30;;
31004;SDS011;17676;52.254;4.490;2024-02-23T14:42:02;7.90;;;0.30;;
31004;SDS011;17676;52.254;4.490;2024-02-23T14:44:29;4.30;;;0.52;;
31004;SDS011;17676;52.254;4.490;2024-02-23T14:46:56;3.15;;;0.20;;